»·PEaware :: AAL1933 KPHX-KSLC

AAL1933 :: KPHX-KSLC

FLIGHT INFORMATION

Flight Status: Arrived
Operator:
American Airlines
More flights by this operator :: More flights under this callsign
Pilot: Varun S. (14197)
Aircraft: BOEING 737-800
(B738)
More flights by this aircraft type
Origin: KPHX Phoenix Sky Harbor Intl
United States
Destination: KSLC Salt Lake City Intl
United States
More flights between these airports :: More routes between these airports
Route: +SNOBL5 GCN BCE DELTA4
File this flight plan on PilotEdge
Remarks:
Altitude:
(Current/Filed)
32,000ft
Speed:
(Current/Filed)
459kts
Departed: 18-Jun-17 08:14 PM
Arrived: 18-Jun-17 09:29 PM
Distance/Time
Traveled:
441nm/1:15
Distance/Time
To Go:
Arrived

Flight Plot

Page will automatically refresh every two minutes.


Map Options




Map Legend


Flown Route
Filed Route
Departure Airport
Arrival Airport
Navaid (VOR, NDB)
Fix

Horizontal Profiles

Position Reports

Time Latitude Longitude Heading Altitude Ground
Speed
18-Jun-17 19:55 33.438340 -111.996633 209 1142ft 0kts
18-Jun-17 19:56 33.438340 -111.996633 209 1142ft 0kts
18-Jun-17 19:57 33.438340 -111.996633 209 1142ft 0kts
18-Jun-17 19:58 33.438340 -111.996633 209 1142ft 0kts
18-Jun-17 19:59 33.438340 -111.996633 209 1142ft 0kts
18-Jun-17 20:00 33.438340 -111.996633 209 1142ft 0kts
18-Jun-17 20:01 33.438340 -111.996633 209 1142ft 0kts
18-Jun-17 20:02 33.438340 -111.996633 209 1142ft 0kts
18-Jun-17 20:03 33.438340 -111.996633 209 1142ft 0kts
18-Jun-17 20:04 33.438340 -111.996633 209 1142ft 0kts
18-Jun-17 20:05 33.438340 -111.996633 209 1142ft 0kts
18-Jun-17 20:06 33.438340 -111.996633 209 1142ft 0kts
18-Jun-17 20:07 33.438717 -111.996373 209 1142ft 0kts
18-Jun-17 20:08 33.438716 -111.996374 209 1142ft 0kts
18-Jun-17 20:09 33.438713 -111.996376 209 1142ft 0kts
18-Jun-17 20:10 33.438926 -111.997553 275 1142ft 0kts
18-Jun-17 20:11 33.438936 -111.997690 274 1142ft 4kts
18-Jun-17 20:12 33.438886 -112.000342 217 1142ft 8kts
18-Jun-17 20:13 33.439166 -111.995658 24 1142ft 6kts
18-Jun-17 20:14 33.439745 -111.992995 90 1142ft 10kts
18-Jun-17 20:15 33.439932 -111.992402 17 1142ft 0kts
18-Jun-17 20:16 33.440843 -111.993942 269 1142ft 40kts
18-Jun-17 20:17 33.440658 -112.043924 268 1863ft 224kts
18-Jun-17 20:18 33.467644 -112.108083 315 4487ft 243kts
18-Jun-17 20:19 33.519875 -112.162334 329 7219ft 253kts
18-Jun-17 20:20 33.594325 -112.171596 6 9480ft 285kts
18-Jun-17 20:21 33.660184 -112.114619 46 11432ft 322kts
18-Jun-17 20:22 33.728153 -112.028393 41 12316ft 387kts
18-Jun-17 20:23 33.831094 -111.984207 8 14270ft 406kts
18-Jun-17 20:24 33.944734 -111.963336 8 16289ft 418kts
18-Jun-17 20:25 34.061009 -111.941457 7 18105ft 429kts
18-Jun-17 20:26 34.181554 -111.945137 354 19744ft 440kts
18-Jun-17 20:27 34.305022 -111.959126 354 21239ft 449kts
18-Jun-17 20:28 34.430702 -111.973086 354 22567ft 458kts
18-Jun-17 20:29 34.558691 -111.987196 354 23766ft 466kts
18-Jun-17 20:30 34.688796 -112.001634 354 24840ft 474kts
18-Jun-17 20:31 34.821038 -112.016406 354 26015ft 476kts
18-Jun-17 20:32 34.952828 -112.031266 354 27327ft 473kts
18-Jun-17 20:33 35.083447 -112.046002 354 28782ft 470kts
18-Jun-17 20:34 35.213159 -112.060697 354 30183ft 467kts
18-Jun-17 20:35 35.342253 -112.075398 354 31523ft 465kts
18-Jun-17 20:36 35.471495 -112.088549 355 31999ft 463kts
18-Jun-17 20:37 35.599613 -112.102579 354 31999ft 463kts
18-Jun-17 20:38 35.728136 -112.118032 354 31999ft 463kts
18-Jun-17 20:39 35.856145 -112.133458 354 31999ft 463kts
18-Jun-17 20:40 35.984304 -112.148540 355 31999ft 463kts
18-Jun-17 20:41 36.112700 -112.159808 355 31999ft 463kts
18-Jun-17 20:42 36.241526 -112.171304 355 31999ft 463kts
18-Jun-17 20:43 36.369997 -112.182834 355 31999ft 463kts
18-Jun-17 20:44 36.498494 -112.194417 355 31999ft 463kts
18-Jun-17 20:45 36.627415 -112.206098 355 31999ft 463kts
18-Jun-17 20:46 36.755879 -112.217782 355 31999ft 463kts
18-Jun-17 20:47 36.884437 -112.229516 355 31999ft 463kts
18-Jun-17 20:48 37.013393 -112.241327 355 31999ft 464kts
18-Jun-17 20:49 37.142045 -112.253150 355 31999ft 464kts
18-Jun-17 20:50 37.270606 -112.265006 355 31999ft 464kts
18-Jun-17 20:51 37.399457 -112.276914 355 31999ft 463kts
18-Jun-17 20:52 37.527995 -112.288848 355 31999ft 463kts
18-Jun-17 20:53 37.656490 -112.300837 355 31999ft 463kts
18-Jun-17 20:54 37.785215 -112.315483 354 31999ft 463kts
18-Jun-17 20:55 37.913439 -112.331375 354 31999ft 464kts
18-Jun-17 20:56 38.041754 -112.347237 354 31999ft 463kts
18-Jun-17 20:57 38.170354 -112.363101 354 31999ft 464kts
18-Jun-17 20:58 38.298694 -112.379018 354 31999ft 464kts
18-Jun-17 20:59 38.426852 -112.394976 354 31999ft 464kts
18-Jun-17 21:00 38.555576 -112.411030 354 31999ft 463kts
18-Jun-17 21:01 38.683794 -112.427129 354 31999ft 463kts
18-Jun-17 21:02 38.811982 -112.443272 354 31999ft 463kts
18-Jun-17 21:03 38.940678 -112.459556 354 31999ft 464kts
18-Jun-17 21:04 39.069005 -112.475786 354 31999ft 464kts
18-Jun-17 21:05 39.197282 -112.492133 354 31999ft 464kts
18-Jun-17 21:05 39.304769 -112.498998 4 31999ft 464kts
18-Jun-17 21:06 39.430571 -112.463360 14 31633ft 461kts
18-Jun-17 21:07 39.554603 -112.421825 14 28363ft 462kts
18-Jun-17 21:08 39.679713 -112.380077 14 25024ft 461kts
18-Jun-17 21:09 39.801772 -112.339371 14 22348ft 445kts
18-Jun-17 21:10 39.920300 -112.299516 14 19708ft 433kts
18-Jun-17 21:11 40.035265 -112.260699 14 17313ft 417kts
18-Jun-17 21:12 40.143368 -112.224176 14 15846ft 387kts
18-Jun-17 21:13 40.243978 -112.189957 14 14673ft 362kts
18-Jun-17 21:14 40.336595 -112.158440 14 13806ft 338kts
18-Jun-17 21:15 40.426763 -112.127657 14 13291ft 315kts
18-Jun-17 21:16 40.508542 -112.099760 14 12609ft 300kts
18-Jun-17 21:17 40.589036 -112.080465 2 11807ft 280kts
18-Jun-17 21:18 40.660856 -112.080415 354 11524ft 235kts
18-Jun-17 21:19 40.722185 -112.088322 354 11000ft 213kts
18-Jun-17 21:20 40.782110 -112.095512 354 11000ft 218kts
18-Jun-17 21:21 40.842647 -112.102694 354 10864ft 218kts
18-Jun-17 21:22 40.906136 -112.110230 354 9306ft 237kts
18-Jun-17 21:23 40.966475 -112.117381 354 8927ft 192kts
18-Jun-17 21:24 41.016177 -112.113000 52 8927ft 192kts
18-Jun-17 21:25 41.026309 -112.041429 82 8251ft 206kts
18-Jun-17 21:26 40.995854 -111.997671 175 7463ft 171kts
18-Jun-17 21:27 40.951054 -111.993496 175 7019ft 160kts
18-Jun-17 21:28 40.906930 -111.988423 174 6166ft 157kts
18-Jun-17 21:29 40.863669 -111.983387 174 5336ft 155kts
18-Jun-17 21:30 40.820630 -111.978382 174 4516ft 154kts
18-Jun-17 21:31 40.792039 -111.975221 193 4235ft 14kts
18-Jun-17 21:32 40.790075 -111.976473 209 4235ft 13kts
18-Jun-17 21:33 40.788111 -111.977808 265 4235ft 0kts
18-Jun-17 21:34 40.788111 -111.977808 265 4235ft 0kts
18-Jun-17 21:35 40.788111 -111.977808 265 4235ft 0kts

Navigation Log

Ident Type
1. KPHX Airport
2. SPRKY Fix
3. GOALY Fix
4. QUAKY Fix
5. SNOBL Fix
6. CARTL Fix
7. LOFTS Fix
8. RIMMM Fix
9. GCN Navaid
10. BCE Navaid
11. SLINA Fix
12. DTA Navaid
13. JAMMN Fix
14. DRAPR Fix
15. SPIEK Fix
16. HEIRY Fix
17. PITTT Fix
18. MAGNE Fix
19. QUIPA Fix
20. RROYY Fix
21. KSLC Airport